Flight Track Log - Related Links

Times and Time Zones

All times are in EDT time to prevent confusion due to time zone crossing. See the TAM3469 flight status page for this flight to view local times or setup timezone preferences in your user account.

Time Position Orientation Groundspeed Altitude Reporting Facility
EDT Latitude Longitude Course Direction KTS MPH feet Rate Location/Type
07:49PM -18.8594 -48.4295 161° South  Level Estimated
07:50PM -18.9418 -48.3998 161° South  Level Estimated
07:51PM -19.0242 -48.3701 161° South  Level Estimated
07:52PM -19.1066 -48.3403 161° South  Level Estimated
07:53PM -19.1891 -48.3105 161° South  Level Estimated
07:54PM -19.2715 -48.2807 161° South  Level Estimated
07:55PM -19.3539 -48.2509 161° South  Level Estimated
07:56PM -19.4363 -48.2210 161° South  Level Estimated
07:57PM -19.5187 -48.1911 161° South  Level Estimated
07:58PM -19.6011 -48.1612 161° South  Level Estimated
07:59PM -19.6835 -48.1312 161° South  Level Estimated
08:00PM -19.7658 -48.1012 161° South  Level Estimated
08:01PM -19.8482 -48.0712 161° South  Level Estimated
08:02PM -19.9306 -48.0411 161° South  Level Estimated
08:03PM -20.0130 -48.0111 161° South  Level Estimated
08:04PM -20.0953 -47.9809 161° South  Level Estimated
08:05PM -20.1777 -47.9508 161° South  Level Estimated
08:06PM -20.2600 -47.9206 161° South  Level Estimated
08:07PM -20.3424 -47.8904 161° South  Level Estimated
08:08PM -20.4247 -47.8601 161° South  Level Estimated
08:09PM -20.5071 -47.8299 161° South  Level Estimated
08:10PM -20.5894 -47.7996 161° South  Level Estimated
08:11PM -20.6717 -47.7692 161° South  Level Estimated
08:12PM -20.7540 -47.7388 161° South  Level Estimated
08:13PM -20.8363 -47.7084 161° South  Level Estimated
08:14PM -20.9187 -47.6780 161° South  Level Estimated
08:15PM -21.0010 -47.6475 161° South  Level Estimated
08:16PM -21.0833 -47.6170 161° South  Level Estimated
08:17PM -21.1656 -47.5864 161° South  Level Estimated
08:18PM -21.2478 -47.5559 161° South  Level Estimated
08:19PM -21.3301 -47.5253 161° South  Level Estimated
08:20PM -21.4124 -47.4946 161° South  Level Estimated
08:21PM -21.4947 -47.4639 161° South  Level Estimated
08:22PM -21.5769 -47.4332 161° South  Level Estimated
08:23PM -21.6592 -47.4025 161° South  Level Estimated
08:24PM -21.7414 -47.3717 161° South  Level Estimated
08:25PM -21.8237 -47.3409 161° South  Level Estimated
08:26PM -21.9059 -47.3100 161° South  Level Estimated
08:27PM -21.9882 -47.2791 161° South  Level Estimated
08:28PM -22.0704 -47.2482 161° South  Level Estimated
08:29PM -22.1526 -47.2172 161° South  Level Estimated
08:30PM -22.2349 -47.1862 161° South  Level Estimated
08:31PM -22.3171 -47.1552 161° South  Level Estimated
08:32PM -22.3993 -47.1241 161° South  Level Estimated
08:33PM -22.4815 -47.0930 161° South  Level Estimated
08:34PM -22.5637 -47.0618 161° South  Level Estimated
08:35PM -22.6459 -47.0306 161° South  Level Estimated
08:36PM -22.7281 -46.9994 161° South  Level Estimated
08:37PM -22.8102 -46.9682 161° South  Level Estimated
08:38PM -22.8924 -46.9369 161° South  Level Estimated
08:39PM -22.9746 -46.9055 161° South  Level Estimated
08:40PM -23.0567 -46.8742 161° South  Level Estimated
08:41PM -23.1389 -46.8428 161° South  Level Estimated
08:42PM -23.2210 -46.8113 161° South  Level Estimated
08:43PM -23.3032 -46.7798 161° South  Level Estimated
08:44PM -23.3853 -46.7483 161° South  Level Estimated
08:45PM -23.4674 -46.7167 161° South  Level Estimated
08:46PM -23.5495 -46.6851 161° South  Level Estimated
08:47PM -23.6267 -46.6554 161° South  Level Estimated
08:48PM -23.6267 -46.6554 114° Southeast  Level Estimated
08:49PM -23.6267 -46.6554 114° Southeast  Level Estimated
08:50PM -23.6267 -46.6554 114° Southeast  Level Estimated
08:51PM -23.6267 -46.6554 114° Southeast  Level Estimated
08:52PM -23.6267 -46.6554 114° Southeast  Level Estimated
08:53PM -23.6267 -46.6554 114° Southeast  Level Estimated
08:54PM -23.6267 -46.6554 114° Southeast  Level Estimated
08:55PM -23.6267 -46.6554 114° Southeast  Level Estimated
08:56PM -23.6267 -46.6554 114° Southeast  Level Estimated
08:57PM -23.6267 -46.6554 114° Southeast  Level Estimated
08:58PM -23.6267 -46.6554 114° Southeast  Level Estimated
08:59PM -23.6267 -46.6554 114° Southeast  Level Estimated
09:00PM -23.6267 -46.6554 114° Southeast  Level Estimated
09:01PM -23.6267 -46.6554 114° Southeast  Level Estimated
09:02PM -23.6267 -46.6554 114° Southeast  Level Estimated
09:03PM -23.6267 -46.6554 114° Southeast  Level Estimated

Login

Don't have an account? Register now (free) for customized features, flight alerts, and more!